createdAt,value
2023-05-16T00:00:51.644Z,604.00
2023-05-16T00:01:51.725Z,600.00
2023-05-16T00:02:51.855Z,602.00
2023-05-16T00:03:51.856Z,604.00
2023-05-16T00:04:51.741Z,600.00
2023-05-16T00:05:51.801Z,600.00
2023-05-16T00:06:51.817Z,606.00
2023-05-16T00:07:51.856Z,604.00
2023-05-16T00:08:51.857Z,606.00
2023-05-16T00:09:51.924Z,605.00
2023-05-16T00:10:51.919Z,606.00
2023-05-16T00:11:51.969Z,605.00
2023-05-16T00:12:52.025Z,600.00
2023-05-16T00:13:52.007Z,605.00
2023-05-16T00:14:52.105Z,602.00
2023-05-16T00:15:52.044Z,604.00
2023-05-16T00:16:52.134Z,601.00
2023-05-16T00:17:52.215Z,606.00
2023-05-16T00:18:52.160Z,605.00
2023-05-16T00:19:52.181Z,600.00
2023-05-16T00:20:52.183Z,603.00
2023-05-16T00:21:52.217Z,608.00
2023-05-16T00:22:52.247Z,604.00
2023-05-16T00:23:52.256Z,603.00
2023-05-16T00:24:52.300Z,604.00
2023-05-16T00:25:52.342Z,605.00
2023-05-16T00:26:52.420Z,608.00
2023-05-16T00:27:52.389Z,603.00
2023-05-16T00:28:52.423Z,605.00
2023-05-16T00:29:52.444Z,603.00
2023-05-16T00:30:52.420Z,603.00
2023-05-16T00:31:52.507Z,601.00
2023-05-16T00:32:52.525Z,602.00
2023-05-16T00:33:52.485Z,602.00
2023-05-16T00:34:52.563Z,606.00
2023-05-16T00:35:52.556Z,603.00
2023-05-16T00:36:52.617Z,604.00
2023-05-16T00:37:52.616Z,601.00
2023-05-16T00:38:52.650Z,604.00
2023-05-16T00:39:52.684Z,606.00
2023-05-16T00:40:52.702Z,604.00
2023-05-16T00:41:52.731Z,605.00
2023-05-16T00:42:52.741Z,605.00
2023-05-16T00:43:52.790Z,605.00
2023-05-16T00:44:52.783Z,602.00
2023-05-16T00:45:52.895Z,603.00
2023-05-16T00:46:52.857Z,601.00
2023-05-16T00:47:52.909Z,607.00
2023-05-16T00:48:52.920Z,604.00
2023-05-16T00:49:52.925Z,602.00
2023-05-16T00:50:52.952Z,605.00
2023-05-16T00:51:52.990Z,603.00
2023-05-16T00:52:53.021Z,604.00
2023-05-16T00:53:53.051Z,601.00
2023-05-16T00:54:53.059Z,605.00
2023-05-16T00:55:53.098Z,605.00
2023-05-16T00:56:53.153Z,603.00
2023-05-16T00:57:53.175Z,604.00
2023-05-16T00:58:53.198Z,607.00
2023-05-16T00:59:53.230Z,604.00
2023-05-16T01:00:53.254Z,605.00
2023-05-16T01:01:53.409Z,601.00
2023-05-16T01:02:53.451Z,604.00
2023-05-16T01:03:53.480Z,606.00
2023-05-16T01:04:53.390Z,607.00
2023-05-16T01:05:53.442Z,608.00
2023-05-16T01:06:53.466Z,602.00
2023-05-16T01:07:53.466Z,603.00
2023-05-16T01:08:53.494Z,603.00
2023-05-16T01:09:53.530Z,602.00
2023-05-16T01:10:53.558Z,602.00
2023-05-16T01:11:53.584Z,602.00
2023-05-16T01:12:53.635Z,607.00
2023-05-16T01:13:53.698Z,607.00
2023-05-16T01:14:53.728Z,609.00
2023-05-16T01:15:53.787Z,607.00
2023-05-16T01:16:53.756Z,604.00
2023-05-16T01:17:53.847Z,604.00
2023-05-16T01:18:53.873Z,603.00
2023-05-16T01:19:54.826Z,604.00
2023-05-16T01:20:53.807Z,604.00
2023-05-16T01:21:53.830Z,605.00
2023-05-16T01:22:53.785Z,606.00
2023-05-16T01:23:53.797Z,602.00
2023-05-16T01:24:53.824Z,603.00
2023-05-16T01:25:53.813Z,604.00
2023-05-16T01:26:53.806Z,603.00
2023-05-16T01:27:53.764Z,600.00
2023-05-16T01:28:53.796Z,610.00
2023-05-16T01:29:53.736Z,608.00
2023-05-16T01:30:53.778Z,606.00
2023-05-16T01:31:53.792Z,604.00
2023-05-16T01:32:53.770Z,608.00
2023-05-16T01:33:53.752Z,611.00
2023-05-16T01:34:53.803Z,608.00
2023-05-16T01:35:53.820Z,606.00
2023-05-16T01:36:53.855Z,604.00
2023-05-16T01:37:53.856Z,604.00
2023-05-16T01:38:53.874Z,607.00
2023-05-16T01:39:53.892Z,606.00
2023-05-16T01:40:53.963Z,604.00
2023-05-16T01:41:53.976Z,604.00
2023-05-16T01:42:54.001Z,608.00
2023-05-16T01:43:54.046Z,606.00
2023-05-16T01:44:54.074Z,609.00
2023-05-16T01:45:54.094Z,608.00
2023-05-16T01:46:54.198Z,602.00
2023-05-16T01:47:54.239Z,605.00
2023-05-16T01:48:54.207Z,606.00
2023-05-16T01:49:54.254Z,605.00
2023-05-16T01:50:54.240Z,606.00
2023-05-16T01:51:54.248Z,603.00
2023-05-16T01:52:54.285Z,605.00
2023-05-16T01:53:54.323Z,605.00
2023-05-16T01:54:54.345Z,605.00
2023-05-16T01:55:54.381Z,605.00
2023-05-16T01:56:54.429Z,603.00
2023-05-16T01:57:54.474Z,605.00
2023-05-16T01:58:54.469Z,606.00
2023-05-16T01:59:54.502Z,603.00
2023-05-16T02:00:54.631Z,603.00
2023-05-16T02:01:54.563Z,605.00
2023-05-16T02:02:54.640Z,604.00
2023-05-16T02:03:54.728Z,606.00
2023-05-16T02:04:54.648Z,604.00
2023-05-16T02:05:54.716Z,604.00
2023-05-16T02:06:54.708Z,605.00
2023-05-16T02:07:54.742Z,605.00
2023-05-16T02:08:54.767Z,602.00
2023-05-16T02:09:54.795Z,605.00
2023-05-16T02:10:54.834Z,605.00
2023-05-16T02:11:54.843Z,602.00
2023-05-16T02:12:54.914Z,605.00
2023-05-16T02:13:54.919Z,607.00
2023-05-16T02:14:54.971Z,602.00
2023-05-16T02:15:54.981Z,602.00
2023-05-16T02:16:55.058Z,603.00
2023-05-16T02:17:55.114Z,604.00
2023-05-16T02:18:55.146Z,608.00
2023-05-16T02:19:55.140Z,603.00
2023-05-16T02:20:55.195Z,601.00
2023-05-16T02:21:55.206Z,604.00
2023-05-16T02:22:55.232Z,606.00
2023-05-16T02:23:55.275Z,606.00
2023-05-16T02:24:55.268Z,602.00
2023-05-16T02:25:55.347Z,606.00
2023-05-16T02:26:55.369Z,610.00
2023-05-16T02:27:55.381Z,607.00
2023-05-16T02:28:55.433Z,605.00
2023-05-16T02:29:55.430Z,611.00
2023-05-16T02:30:55.494Z,603.00
2023-05-16T02:31:55.479Z,606.00
2023-05-16T02:32:55.567Z,605.00
2023-05-16T02:33:55.546Z,605.00
2023-05-16T02:34:55.587Z,609.00
2023-05-16T02:35:55.648Z,605.00
2023-05-16T02:36:55.660Z,606.00
2023-05-16T02:37:55.673Z,608.00
2023-05-16T02:38:55.718Z,602.00
2023-05-16T02:39:55.757Z,602.00
2023-05-16T02:40:55.821Z,607.00
2023-05-16T02:41:55.832Z,605.00
2023-05-16T02:42:55.864Z,603.00
2023-05-16T02:43:55.916Z,602.00
2023-05-16T02:44:55.960Z,600.00
2023-05-16T02:45:55.979Z,606.00
2023-05-16T02:46:56.030Z,608.00
2023-05-16T02:47:56.186Z,605.00
2023-05-16T02:48:56.118Z,603.00
2023-05-16T02:49:56.144Z,603.00
2023-05-16T02:50:56.239Z,605.00
2023-05-16T02:51:56.263Z,602.00
2023-05-16T02:52:56.284Z,603.00
2023-05-16T02:53:56.339Z,603.00
2023-05-16T02:55:09.841Z,603.00
2023-05-16T02:55:57.379Z,603.00
2023-05-16T02:56:56.372Z,604.00
2023-05-16T02:57:56.390Z,603.00
2023-05-16T02:58:56.338Z,606.00
2023-05-16T02:59:56.341Z,605.00
2023-05-16T03:00:56.326Z,607.00
2023-05-16T03:01:56.397Z,603.00
2023-05-16T03:02:56.393Z,604.00
2023-05-16T03:03:56.376Z,602.00
2023-05-16T03:04:56.312Z,605.00
2023-05-16T03:05:56.318Z,606.00
2023-05-16T03:06:56.360Z,609.00
2023-05-16T03:07:56.392Z,608.00
2023-05-16T03:08:56.432Z,604.00
2023-05-16T03:09:56.484Z,603.00
2023-05-16T03:10:56.519Z,606.00
2023-05-16T03:11:56.573Z,604.00
2023-05-16T03:12:56.596Z,606.00
2023-05-16T03:13:56.650Z,606.00
2023-05-16T03:14:56.684Z,606.00
2023-05-16T03:15:56.765Z,610.00
2023-05-16T03:16:56.762Z,608.00
2023-05-16T03:17:56.889Z,606.00
2023-05-16T03:18:56.890Z,600.00
2023-05-16T03:19:56.894Z,609.00
2023-05-16T03:20:56.940Z,604.00
2023-05-16T03:21:56.991Z,604.00
2023-05-16T03:22:57.016Z,608.00
2023-05-16T03:23:57.083Z,604.00
2023-05-16T03:24:57.097Z,604.00
2023-05-16T03:25:57.157Z,604.00
2023-05-16T03:26:57.209Z,601.00
2023-05-16T03:27:57.251Z,603.00
2023-05-16T03:28:57.293Z,607.00
2023-05-16T03:29:57.333Z,604.00
2023-05-16T03:30:57.382Z,607.00
2023-05-16T03:31:57.436Z,610.00
2023-05-16T03:32:57.549Z,600.00
2023-05-16T03:33:57.514Z,604.00
2023-05-16T03:34:57.568Z,600.00
2023-05-16T03:35:57.601Z,602.00
2023-05-16T03:36:57.627Z,605.00
2023-05-16T03:37:57.695Z,604.00
2023-05-16T03:38:57.724Z,605.00
2023-05-16T03:39:57.770Z,605.00
2023-05-16T03:40:57.827Z,602.00
2023-05-16T03:41:57.859Z,606.00
2023-05-16T03:42:57.947Z,603.00
2023-05-16T03:43:57.961Z,608.00
2023-05-16T03:44:58.009Z,604.00
2023-05-16T03:45:58.127Z,605.00
2023-05-16T03:46:58.086Z,604.00
2023-05-16T03:47:58.206Z,600.00
2023-05-16T03:48:58.182Z,605.00
2023-05-16T03:49:58.234Z,607.00
2023-05-16T03:50:58.282Z,602.00
2023-05-16T03:51:58.327Z,604.00
2023-05-16T03:52:58.377Z,604.00
2023-05-16T03:53:58.429Z,608.00
2023-05-16T03:54:58.465Z,603.00
2023-05-16T03:55:58.535Z,601.00
2023-05-16T03:56:58.559Z,605.00
2023-05-16T03:57:58.593Z,600.00
2023-05-16T03:58:58.648Z,605.00
2023-05-16T03:59:58.685Z,604.00
2023-05-16T04:00:58.739Z,604.00
2023-05-16T04:01:58.811Z,607.00
2023-05-16T04:02:58.914Z,604.00
2023-05-16T04:03:58.890Z,606.00
2023-05-16T04:04:58.933Z,605.00
2023-05-16T04:05:59.074Z,604.00
2023-05-16T04:06:59.040Z,606.00
2023-05-16T04:07:59.090Z,606.00
2023-05-16T04:08:59.155Z,604.00
2023-05-16T04:09:59.196Z,609.00
2023-05-16T04:10:59.249Z,604.00
2023-05-16T04:11:59.290Z,600.00
2023-05-16T04:12:59.355Z,604.00
2023-05-16T04:13:59.421Z,601.00
2023-05-16T04:14:59.391Z,603.00
2023-05-16T04:15:59.452Z,603.00
2023-05-16T04:16:59.535Z,603.00
2023-05-16T04:17:59.570Z,603.00
2023-05-16T04:18:59.660Z,605.00
2023-05-16T04:19:59.642Z,607.00
2023-05-16T04:20:59.693Z,602.00
2023-05-16T04:21:59.725Z,602.00
2023-05-16T04:22:59.787Z,606.00
2023-05-16T04:23:59.873Z,604.00
2023-05-16T04:24:59.856Z,604.00
2023-05-16T04:25:59.916Z,603.00
2023-05-16T04:26:59.963Z,602.00
2023-05-16T04:28:00.029Z,606.00
2023-05-16T04:29:00.344Z,603.00
2023-05-16T04:30:00.120Z,612.00
2023-05-16T04:31:00.220Z,609.00
2023-05-16T04:32:00.321Z,606.00
2023-05-16T04:33:00.304Z,608.00
2023-05-16T04:34:00.318Z,608.00
2023-05-16T04:35:00.353Z,604.00
2023-05-16T04:36:00.423Z,606.00
2023-05-16T04:37:00.494Z,605.00
2023-05-16T04:38:00.521Z,606.00
2023-05-16T04:39:00.570Z,607.00
2023-05-16T04:40:00.592Z,607.00
2023-05-16T04:41:00.672Z,605.00
2023-05-16T04:42:00.684Z,606.00
2023-05-16T04:43:00.759Z,604.00
2023-05-16T04:44:00.811Z,605.00
2023-05-16T04:45:00.872Z,605.00
2023-05-16T04:46:00.935Z,602.00
2023-05-16T04:47:00.944Z,605.00
2023-05-16T04:48:01.073Z,607.00
2023-05-16T04:49:01.053Z,603.00
2023-05-16T04:50:01.166Z,605.00
2023-05-16T04:51:01.201Z,609.00
2023-05-16T04:52:01.188Z,607.00
2023-05-16T04:53:01.239Z,608.00
2023-05-16T04:54:01.307Z,607.00
2023-05-16T04:55:01.332Z,608.00
2023-05-16T04:56:01.377Z,602.00
2023-05-16T04:57:01.392Z,612.00
2023-05-16T04:58:01.460Z,605.00
2023-05-16T04:59:01.561Z,601.00
2023-05-16T05:00:01.557Z,606.00
2023-05-16T05:01:01.981Z,608.00
2023-05-16T05:02:01.719Z,607.00
2023-05-16T05:03:01.770Z,608.00
2023-05-16T05:04:01.774Z,607.00
2023-05-16T05:05:01.820Z,600.00
2023-05-16T05:06:01.870Z,609.00
2023-05-16T05:07:01.980Z,605.00
2023-05-16T05:08:01.943Z,607.00
2023-05-16T05:09:02.005Z,604.00
2023-05-16T05:10:02.065Z,606.00
2023-05-16T05:11:02.073Z,605.00
2023-05-16T05:12:02.139Z,606.00
2023-05-16T05:13:02.191Z,609.00
2023-05-16T05:14:02.265Z,604.00
2023-05-16T05:15:02.291Z,608.00
2023-05-16T05:16:02.360Z,601.00
2023-05-16T05:17:02.401Z,604.00
2023-05-16T05:18:02.607Z,608.00
2023-05-16T05:19:02.593Z,608.00
2023-05-16T05:20:03.326Z,603.00
2023-05-16T05:21:02.580Z,606.00
2023-05-16T05:22:02.623Z,608.00
2023-05-16T05:23:02.665Z,602.00
2023-05-16T05:24:02.688Z,608.00
2023-05-16T05:25:02.757Z,605.00
2023-05-16T05:26:02.789Z,603.00
2023-05-16T05:27:02.857Z,603.00
2023-05-16T05:28:02.889Z,605.00
2023-05-16T05:29:05.642Z,610.00
2023-05-16T05:30:02.934Z,609.00
2023-05-16T05:31:02.948Z,608.00
2023-05-16T05:32:03.050Z,607.00
2023-05-16T05:33:02.950Z,608.00
2023-05-16T05:34:02.916Z,612.00
2023-05-16T05:35:02.906Z,605.00
2023-05-16T05:36:04.152Z,603.00
2023-05-16T05:37:02.892Z,608.00
2023-05-16T05:38:02.877Z,609.00
2023-05-16T05:39:02.902Z,607.00
2023-05-16T05:40:02.870Z,607.00
2023-05-16T05:41:02.876Z,609.00
2023-05-16T05:42:02.844Z,613.00
2023-05-16T05:43:02.850Z,611.00
2023-05-16T05:44:02.824Z,618.00
2023-05-16T05:45:02.809Z,612.00
2023-05-16T05:46:02.913Z,617.00
2023-05-16T05:47:02.835Z,644.00
2023-05-16T05:48:02.857Z,635.00
2023-05-16T05:49:02.809Z,631.00
2023-05-16T05:50:02.814Z,636.00
2023-05-16T05:51:02.779Z,634.00
2023-05-16T05:52:02.781Z,650.00
2023-05-16T05:53:02.784Z,645.00
2023-05-16T05:54:02.765Z,655.00
2023-05-16T05:55:02.783Z,649.00
2023-05-16T05:56:02.880Z,670.00
2023-05-16T05:57:02.952Z,693.00
2023-05-16T05:58:05.567Z,720.00
2023-05-16T05:59:02.993Z,714.00
2023-05-16T06:00:02.955Z,718.00
2023-05-16T06:01:02.964Z,710.00
2023-05-16T06:02:02.976Z,723.00
2023-05-16T06:03:02.964Z,727.00
2023-05-16T06:04:02.918Z,729.00
2023-05-16T06:05:02.964Z,723.00
2023-05-16T06:06:02.958Z,737.00
2023-05-16T06:07:02.926Z,738.00
2023-05-16T06:08:02.922Z,740.00
2023-05-16T06:09:02.893Z,755.00
2023-05-16T06:10:04.791Z,746.00
2023-05-16T06:11:02.908Z,745.00
2023-05-16T06:12:02.909Z,739.00
2023-05-16T06:13:02.904Z,733.00
2023-05-16T06:14:02.855Z,749.00
2023-05-16T06:15:02.913Z,729.00
2023-05-16T06:16:03.032Z,741.00
2023-05-16T06:17:03.105Z,748.00
2023-05-16T06:18:03.209Z,744.00
2023-05-16T06:19:03.249Z,782.00
2023-05-16T06:20:03.224Z,777.00
2023-05-16T06:21:03.264Z,789.00
2023-05-16T06:22:03.337Z,830.00
2023-05-16T06:23:03.361Z,817.00
2023-05-16T06:24:03.459Z,831.00
2023-05-16T06:25:03.490Z,852.00
2023-05-16T06:26:03.503Z,855.00
2023-05-16T06:27:03.550Z,857.00
2023-05-16T06:28:03.604Z,870.00
2023-05-16T06:29:03.622Z,885.00
2023-05-16T06:30:03.677Z,900.00
2023-05-16T06:31:03.744Z,921.00
2023-05-16T06:32:03.760Z,917.00
2023-05-16T06:33:03.800Z,923.00
2023-05-16T06:34:03.815Z,932.00
2023-05-16T06:35:03.812Z,981.00
2023-05-16T06:36:03.848Z,964.00
2023-05-16T06:37:03.893Z,964.00
2023-05-16T06:38:03.902Z,973.00
2023-05-16T06:39:03.903Z,975.00
2023-05-16T06:40:03.930Z,999.00
2023-05-16T06:41:03.959Z,1001.00
2023-05-16T06:42:03.952Z,1010.00
2023-05-16T06:43:03.947Z,1037.00
2023-05-16T06:44:03.971Z,1029.00
2023-05-16T06:45:03.957Z,1053.00
2023-05-16T06:46:04.093Z,1056.00
2023-05-16T06:47:04.012Z,1067.00
2023-05-16T06:48:04.018Z,1073.00
2023-05-16T06:49:04.004Z,1099.00
2023-05-16T06:50:03.972Z,1066.00
2023-05-16T06:51:03.990Z,1236.00
2023-05-16T06:52:03.988Z,1203.00
2023-05-16T06:53:04.024Z,1211.00
2023-05-16T06:54:04.336Z,1200.00
2023-05-16T06:55:04.013Z,1218.00
2023-05-16T06:56:04.029Z,1217.00
2023-05-16T06:57:04.072Z,1206.00
2023-05-16T06:58:04.090Z,1202.00
2023-05-16T06:59:04.058Z,1208.00
2023-05-16T07:00:04.073Z,1222.00
2023-05-16T07:01:04.172Z,1242.00
2023-05-16T07:02:04.109Z,1246.00
2023-05-16T07:03:04.173Z,1232.00
2023-05-16T07:04:04.225Z,1245.00
2023-05-16T07:05:04.093Z,1251.00
2023-05-16T07:06:04.077Z,1247.00
2023-05-16T07:07:04.118Z,1256.00
2023-05-16T07:08:06.261Z,1260.00
2023-05-16T07:09:04.088Z,1289.00
2023-05-16T07:10:04.066Z,1276.00
2023-05-16T07:11:04.114Z,1299.00
2023-05-16T07:12:04.093Z,1293.00
2023-05-16T07:13:04.052Z,1306.00
2023-05-16T07:14:04.081Z,1312.00
2023-05-16T07:15:04.049Z,1315.00
2023-05-16T07:16:04.061Z,1323.00
2023-05-16T07:17:04.108Z,1337.00
2023-05-16T07:18:04.067Z,1342.00
2023-05-16T07:19:04.050Z,1343.00
2023-05-16T07:20:05.479Z,1354.00
2023-05-16T07:21:04.023Z,1353.00
2023-05-16T07:22:04.014Z,1370.00
2023-05-16T07:23:04.010Z,1379.00
2023-05-16T07:24:03.982Z,1381.00
2023-05-16T07:25:04.006Z,1387.00
2023-05-16T07:26:03.972Z,1397.00
2023-05-16T07:27:03.972Z,1402.00
2023-05-16T07:28:03.989Z,1401.00
2023-05-16T07:29:03.954Z,1407.00
2023-05-16T07:30:03.980Z,1421.00
2023-05-16T07:31:03.973Z,1417.00
2023-05-16T07:32:04.022Z,1427.00
2023-05-16T07:33:03.968Z,1427.00
2023-05-16T07:34:03.922Z,1436.00
2023-05-16T07:35:03.969Z,1445.00
2023-05-16T07:36:15.492Z,1442.00
2023-05-16T07:37:05.049Z,1443.00
2023-05-16T07:38:04.021Z,1446.00
2023-05-16T07:39:04.035Z,1451.00
2023-05-16T07:40:04.053Z,1462.00
2023-05-16T07:41:03.986Z,1472.00
2023-05-16T07:42:03.982Z,1488.00
2023-05-16T07:43:03.989Z,1489.00
2023-05-16T07:44:03.992Z,1498.00
2023-05-16T07:45:03.968Z,1504.00
2023-05-16T07:46:04.104Z,1513.00
2023-05-16T07:47:03.981Z,1510.00
2023-05-16T07:48:04.085Z,1525.00
2023-05-16T07:49:03.986Z,1521.00
2023-05-16T07:50:04.041Z,1458.00
2023-05-16T07:51:04.073Z,1457.00
2023-05-16T07:52:04.122Z,1428.00
2023-05-16T07:53:04.171Z,1313.00
2023-05-16T07:54:04.177Z,1274.00
2023-05-16T07:55:04.326Z,1241.00
2023-05-16T07:56:04.326Z,1229.00
2023-05-16T07:57:04.390Z,1253.00
2023-05-16T07:58:04.518Z,1279.00
2023-05-16T07:59:04.568Z,1260.00
2023-05-16T08:00:04.564Z,1297.00
2023-05-16T08:01:04.613Z,1330.00
2023-05-16T08:02:04.751Z,1336.00
2023-05-16T08:03:04.777Z,1339.00
2023-05-16T08:04:04.745Z,1346.00
2023-05-16T08:05:04.867Z,1346.00
2023-05-16T08:06:05.049Z,1371.00
2023-05-16T08:07:04.786Z,1373.00
2023-05-16T08:08:04.812Z,1386.00
2023-05-16T08:09:04.858Z,1403.00
2023-05-16T08:10:04.862Z,1420.00
2023-05-16T08:11:04.872Z,1413.00
2023-05-16T08:12:04.897Z,1439.00
2023-05-16T08:13:04.861Z,1450.00
2023-05-16T08:14:04.885Z,1455.00
2023-05-16T08:15:04.877Z,1465.00
2023-05-16T08:16:04.904Z,1477.00
2023-05-16T08:17:04.902Z,1519.00
2023-05-16T08:18:04.914Z,1512.00
2023-05-16T08:19:04.939Z,1509.00
2023-05-16T08:20:04.939Z,1527.00
2023-05-16T08:21:04.898Z,1538.00
2023-05-16T08:22:04.890Z,1553.00
2023-05-16T08:23:04.894Z,1572.00
2023-05-16T08:24:04.938Z,1576.00
2023-05-16T08:25:04.932Z,1557.00
2023-05-16T08:26:04.991Z,1559.00
2023-05-16T08:27:05.084Z,1542.00
2023-05-16T08:28:05.023Z,1529.00
2023-05-16T08:29:05.018Z,1482.00
2023-05-16T08:30:04.977Z,1512.00
2023-05-16T08:31:05.026Z,1500.00
2023-05-16T08:32:05.004Z,1472.00
2023-05-16T08:33:05.178Z,1405.00
2023-05-16T08:34:04.983Z,1383.00
2023-05-16T08:35:05.017Z,1353.00
2023-05-16T08:36:09.723Z,1330.00
2023-05-16T08:37:04.991Z,1330.00
2023-05-16T08:38:05.006Z,1272.00
2023-05-16T08:39:04.995Z,1263.00
2023-05-16T08:40:05.012Z,1280.00
2023-05-16T08:41:04.983Z,1271.00
2023-05-16T08:42:04.970Z,1212.00
2023-05-16T08:43:05.007Z,1207.00
2023-05-16T08:44:04.965Z,1204.00
2023-05-16T08:45:04.955Z,1235.00
2023-05-16T08:46:04.960Z,1262.00
2023-05-16T08:47:04.991Z,1283.00
2023-05-16T08:48:04.955Z,1295.00
2023-05-16T08:49:04.942Z,1317.00
2023-05-16T08:50:05.046Z,1311.00
2023-05-16T08:51:04.900Z,1321.00
2023-05-16T08:52:04.897Z,1317.00
2023-05-16T08:53:04.886Z,1330.00
2023-05-16T08:54:04.931Z,1320.00
2023-05-16T08:55:11.094Z,1328.00
2023-05-16T08:56:05.905Z,1329.00
2023-05-16T08:57:04.876Z,1331.00
2023-05-16T08:58:04.891Z,1333.00
2023-05-16T08:59:04.877Z,1338.00
2023-05-16T09:00:04.872Z,1341.00
2023-05-16T09:01:04.887Z,1344.00
2023-05-16T09:02:04.831Z,1350.00
2023-05-16T09:03:04.881Z,1348.00
2023-05-16T09:04:04.908Z,1345.00
2023-05-16T09:05:04.813Z,1348.00
2023-05-16T09:06:06.031Z,1348.00
2023-05-16T09:07:04.923Z,1348.00
2023-05-16T09:08:04.895Z,1338.00
2023-05-16T09:09:04.899Z,1333.00
2023-05-16T09:10:04.917Z,1331.00
2023-05-16T09:11:04.923Z,1333.00
2023-05-16T09:12:04.950Z,1329.00
2023-05-16T09:13:04.937Z,1334.00
2023-05-16T09:14:04.970Z,1315.00
2023-05-16T09:15:05.018Z,1328.00
2023-05-16T09:16:05.019Z,1324.00
2023-05-16T09:17:05.133Z,1333.00
2023-05-16T09:18:05.102Z,1323.00
2023-05-16T09:19:05.051Z,1328.00
2023-05-16T09:20:05.016Z,1314.00
2023-05-16T09:21:05.041Z,1311.00
2023-05-16T09:22:05.043Z,1305.00
2023-05-16T09:23:05.772Z,1301.00
2023-05-16T09:24:05.071Z,1295.00
2023-05-16T09:25:06.921Z,1287.00
2023-05-16T09:26:05.078Z,1296.00
2023-05-16T09:27:05.078Z,1286.00
2023-05-16T09:28:05.068Z,1286.00
2023-05-16T09:29:05.060Z,1282.00
2023-05-16T09:30:05.044Z,1276.00
2023-05-16T09:31:05.164Z,1271.00
2023-05-16T09:32:05.044Z,1265.00
2023-05-16T09:33:05.050Z,1274.00
2023-05-16T09:34:05.032Z,1267.00
2023-05-16T09:35:05.034Z,1259.00
2023-05-16T09:36:05.161Z,1271.00
2023-05-16T09:37:06.816Z,1265.00
2023-05-16T09:38:05.025Z,1269.00
2023-05-16T09:39:05.005Z,1267.00
2023-05-16T09:40:05.010Z,1265.00
2023-05-16T09:41:05.012Z,1256.00
2023-05-16T09:42:04.973Z,1257.00
2023-05-16T09:43:05.031Z,1251.00
2023-05-16T09:44:04.961Z,1244.00
2023-05-16T09:45:04.972Z,1229.00
2023-05-16T09:46:05.009Z,1226.00
2023-05-16T09:47:04.949Z,1236.00
2023-05-16T09:48:05.017Z,1231.00
2023-05-16T09:49:04.938Z,1209.00
2023-05-16T09:50:05.754Z,1210.00
2023-05-16T09:51:04.941Z,1207.00
2023-05-16T09:52:05.069Z,1211.00
2023-05-16T09:53:04.907Z,1203.00
2023-05-16T09:54:04.918Z,1206.00
2023-05-16T09:55:04.887Z,1206.00
2023-05-16T09:56:04.900Z,1203.00
2023-05-16T09:57:04.883Z,1196.00
2023-05-16T09:58:04.857Z,1196.00
2023-05-16T09:59:04.857Z,1184.00
2023-05-16T10:00:04.847Z,1197.00
2023-05-16T10:01:04.872Z,1195.00
2023-05-16T10:02:04.859Z,1194.00
2023-05-16T10:03:06.098Z,1194.00
2023-05-16T10:04:04.930Z,1187.00
2023-05-16T10:05:04.972Z,1184.00
2023-05-16T10:06:04.824Z,1196.00
2023-05-16T10:07:04.846Z,1189.00
2023-05-16T10:08:04.879Z,1177.00
2023-05-16T10:09:04.873Z,1174.00
2023-05-16T10:10:04.894Z,1180.00
2023-05-16T10:11:04.971Z,1177.00
2023-05-16T10:12:04.953Z,1173.00
2023-05-16T10:13:04.989Z,1162.00
2023-05-16T10:14:06.043Z,1167.00
2023-05-16T10:15:04.974Z,1163.00
2023-05-16T10:16:05.079Z,1162.00
2023-05-16T10:17:04.953Z,1157.00
2023-05-16T10:18:05.019Z,1151.00
2023-05-16T10:19:05.134Z,1146.00
2023-05-16T10:20:04.993Z,1148.00
2023-05-16T10:21:04.938Z,1154.00
2023-05-16T10:22:04.963Z,1147.00
2023-05-16T10:23:04.946Z,1148.00
2023-05-16T10:24:04.961Z,1139.00
2023-05-16T10:25:04.920Z,1128.00
2023-05-16T10:26:04.927Z,1139.00
2023-05-16T10:27:04.905Z,1129.00
2023-05-16T10:28:04.904Z,1134.00
2023-05-16T10:29:04.885Z,1133.00
2023-05-16T10:30:04.897Z,1130.00
2023-05-16T10:31:04.870Z,1129.00
2023-05-16T10:32:05.033Z,1125.00
2023-05-16T10:33:04.894Z,1125.00
2023-05-16T10:34:04.879Z,1120.00
2023-05-16T10:35:06.357Z,1099.00
2023-05-16T10:36:04.854Z,1095.00
2023-05-16T10:37:04.840Z,1059.00
2023-05-16T10:38:08.071Z,1071.00
2023-05-16T10:39:04.849Z,1071.00
2023-05-16T10:40:04.827Z,1070.00
2023-05-16T10:41:04.872Z,1072.00
2023-05-16T10:42:04.842Z,1046.00
2023-05-16T10:43:04.800Z,1063.00
2023-05-16T10:44:04.817Z,1079.00
2023-05-16T10:45:05.960Z,1085.00
2023-05-16T10:46:04.927Z,1037.00
2023-05-16T10:47:04.789Z,989.00
2023-05-16T10:48:04.921Z,978.00
2023-05-16T10:49:04.781Z,938.00
2023-05-16T10:50:04.766Z,928.00
2023-05-16T10:51:04.859Z,906.00
2023-05-16T10:52:04.766Z,956.00
2023-05-16T10:53:04.726Z,991.00
2023-05-16T10:54:04.749Z,1009.00
2023-05-16T10:55:05.270Z,1032.00
2023-05-16T10:56:04.715Z,1058.00
2023-05-16T10:57:04.718Z,1086.00
2023-05-16T10:58:04.715Z,1118.00
2023-05-16T10:59:04.717Z,1137.00
2023-05-16T11:00:04.687Z,1146.00
2023-05-16T11:01:04.716Z,1173.00
2023-05-16T11:02:04.778Z,1198.00
2023-05-16T11:03:05.101Z,1210.00
2023-05-16T11:04:04.899Z,1231.00
2023-05-16T11:05:04.660Z,1244.00
2023-05-16T11:06:04.664Z,1271.00
2023-05-16T11:07:04.812Z,1301.00
2023-05-16T11:08:04.643Z,1306.00
2023-05-16T11:09:04.614Z,1321.00
2023-05-16T11:10:04.700Z,1365.00
2023-05-16T11:11:04.601Z,1416.00
2023-05-16T11:12:04.609Z,1437.00
2023-05-16T11:13:04.598Z,1437.00
2023-05-16T11:14:04.609Z,1435.00
2023-05-16T11:15:04.641Z,1442.00
2023-05-16T11:16:04.646Z,1457.00
2023-05-16T11:17:04.717Z,1461.00
2023-05-16T11:18:04.772Z,1470.00
2023-05-16T11:19:04.879Z,1484.00
2023-05-16T11:20:04.758Z,1461.00
2023-05-16T11:21:04.808Z,1488.00
2023-05-16T11:22:04.793Z,1481.00
2023-05-16T11:23:04.989Z,1443.00
2023-05-16T11:24:04.880Z,1437.00
2023-05-16T11:25:04.894Z,1317.00
2023-05-16T11:26:04.935Z,1300.00
2023-05-16T11:27:04.988Z,1252.00
2023-05-16T11:28:04.999Z,1215.00
2023-05-16T11:29:05.056Z,1170.00
2023-05-16T11:30:05.140Z,1262.00
2023-05-16T11:31:05.229Z,1247.00
2023-05-16T11:32:05.270Z,1280.00
2023-05-16T11:33:05.271Z,1290.00
2023-05-16T11:34:05.301Z,1296.00
2023-05-16T11:35:05.338Z,1303.00
2023-05-16T11:36:15.308Z,1312.00
2023-05-16T11:37:06.355Z,1314.00
2023-05-16T11:38:05.359Z,1316.00
2023-05-16T11:39:06.422Z,1323.00
2023-05-16T11:40:05.504Z,1335.00
2023-05-16T11:41:05.341Z,1364.00
2023-05-16T11:42:05.369Z,1366.00
2023-05-16T11:43:07.177Z,1366.00
2023-05-16T11:44:05.338Z,1365.00
2023-05-16T11:45:05.340Z,1364.00
2023-05-16T11:46:05.340Z,1368.00
2023-05-16T11:47:05.505Z,1364.00
2023-05-16T11:48:05.520Z,1362.00
2023-05-16T11:49:05.553Z,1364.00
2023-05-16T11:50:05.621Z,1350.00
2023-05-16T11:51:05.665Z,1358.00
2023-05-16T11:52:05.754Z,1348.00
2023-05-16T11:53:05.766Z,1353.00
2023-05-16T11:54:05.820Z,1346.00
2023-05-16T11:55:05.921Z,1343.00
2023-05-16T11:56:05.938Z,1338.00
2023-05-16T11:57:06.058Z,1334.00
2023-05-16T11:58:06.023Z,1338.00
2023-05-16T11:59:06.063Z,1324.00
2023-05-16T12:00:06.122Z,1320.00
2023-05-16T12:01:06.114Z,1316.00
2023-05-16T12:02:06.065Z,1322.00
2023-05-16T12:03:06.683Z,1320.00
2023-05-16T12:04:06.247Z,1315.00
2023-05-16T12:05:06.235Z,1310.00
2023-05-16T12:06:06.196Z,1310.00
2023-05-16T12:07:06.190Z,1299.00
2023-05-16T12:08:06.206Z,1296.00
2023-05-16T12:09:06.215Z,1293.00
2023-05-16T12:10:06.242Z,1279.00
2023-05-16T12:11:06.235Z,1288.00
2023-05-16T12:12:06.214Z,1274.00
2023-05-16T12:13:06.219Z,1272.00
2023-05-16T12:14:06.227Z,1274.00
2023-05-16T12:15:06.216Z,1271.00
2023-05-16T12:16:06.264Z,1263.00
2023-05-16T12:17:06.218Z,1256.00
2023-05-16T12:18:06.319Z,1253.00
2023-05-16T12:19:06.305Z,1244.00